createdAt,value
2024-01-31T00:00:40.201Z,55.11
2024-01-31T00:01:40.216Z,56.07
2024-01-31T00:02:40.201Z,57.20
2024-01-31T00:03:40.160Z,55.27
2024-01-31T00:04:40.224Z,56.24
2024-01-31T00:05:40.172Z,55.43
2024-01-31T00:06:40.114Z,55.11
2024-01-31T00:07:40.144Z,55.75
2024-01-31T00:08:40.116Z,56.56
2024-01-31T00:09:40.082Z,55.91
2024-01-31T00:10:40.189Z,56.24
2024-01-31T00:11:40.107Z,55.59
2024-01-31T00:12:40.099Z,55.43
2024-01-31T00:13:40.097Z,56.07
2024-01-31T00:14:40.069Z,56.88
2024-01-31T00:15:40.101Z,55.91
2024-01-31T00:16:40.085Z,55.43
2024-01-31T00:17:40.055Z,55.43
2024-01-31T00:18:40.084Z,55.59
2024-01-31T00:19:40.185Z,60.59
2024-01-31T00:20:40.013Z,55.27
2024-01-31T00:21:40.060Z,55.59
2024-01-31T00:22:40.139Z,55.75
2024-01-31T00:23:39.990Z,55.91
2024-01-31T00:24:40.003Z,55.43
2024-01-31T00:25:40.075Z,56.07
2024-01-31T00:26:40.007Z,55.59
2024-01-31T00:27:39.988Z,56.07
2024-01-31T00:28:40.087Z,55.91
2024-01-31T00:29:40.051Z,57.20
2024-01-31T00:32:50.734Z,55.43
2024-01-31T00:33:50.881Z,55.59
2024-01-31T00:34:50.694Z,58.49
2024-01-31T00:35:50.633Z,56.72
2024-01-31T00:36:50.603Z,55.91
2024-01-31T00:37:50.677Z,55.75
2024-01-31T00:38:50.614Z,54.95
2024-01-31T00:39:50.637Z,55.43
2024-01-31T00:40:50.624Z,55.75
2024-01-31T00:41:50.570Z,55.59
2024-01-31T00:42:50.600Z,55.59
2024-01-31T00:43:50.554Z,55.27
2024-01-31T00:44:50.569Z,55.75
2024-01-31T00:45:50.547Z,56.40
2024-01-31T00:46:50.598Z,55.11
2024-01-31T00:47:50.583Z,55.75
2024-01-31T00:48:50.593Z,55.59
2024-01-31T00:49:50.585Z,55.91
2024-01-31T00:50:50.511Z,55.91
2024-01-31T00:51:50.538Z,55.59
2024-01-31T00:52:50.497Z,55.59
2024-01-31T00:53:50.637Z,55.75
2024-01-31T00:54:51.141Z,55.59
2024-01-31T00:55:50.526Z,56.24
2024-01-31T00:56:59.285Z,55.75
2024-01-31T00:58:25.676Z,55.91
2024-01-31T00:58:50.690Z,55.91
2024-01-31T01:00:31.918Z,56.07
2024-01-31T01:00:50.860Z,57.04
2024-01-31T01:01:51.406Z,55.91
2024-01-31T01:02:50.462Z,55.75
2024-01-31T01:03:50.550Z,55.75
2024-01-31T01:04:50.481Z,55.91
2024-01-31T01:05:50.476Z,56.24
2024-01-31T01:06:51.263Z,58.49
2024-01-31T01:07:50.435Z,57.20
2024-01-31T01:08:50.547Z,56.88
2024-01-31T01:09:50.408Z,59.78
2024-01-31T01:10:50.398Z,56.56
2024-01-31T01:11:50.395Z,55.91
2024-01-31T01:12:50.373Z,54.79
2024-01-31T01:13:50.414Z,54.95
2024-01-31T01:14:51.772Z,54.95
2024-01-31T01:15:50.400Z,55.27
2024-01-31T01:16:50.391Z,56.88
2024-01-31T01:17:50.420Z,54.95
2024-01-31T01:18:50.388Z,54.62
2024-01-31T01:19:50.529Z,54.95
2024-01-31T01:20:50.350Z,54.62
2024-01-31T01:21:50.292Z,58.01
2024-01-31T01:22:50.324Z,59.46
2024-01-31T01:23:52.755Z,55.91
2024-01-31T01:24:51.381Z,55.75
2024-01-31T01:25:50.354Z,55.91
2024-01-31T01:26:50.302Z,56.24
2024-01-31T01:27:50.304Z,56.07
2024-01-31T01:28:50.322Z,56.88
2024-01-31T01:29:50.338Z,55.91
2024-01-31T01:30:50.778Z,56.07
2024-01-31T01:31:50.293Z,55.75
2024-01-31T01:32:50.422Z,56.72
2024-01-31T01:33:50.293Z,56.88
2024-01-31T01:34:50.309Z,56.88
2024-01-31T01:35:50.261Z,56.07
2024-01-31T01:36:50.282Z,56.40
2024-01-31T01:37:50.345Z,57.69
2024-01-31T01:38:50.232Z,59.30
2024-01-31T01:39:50.221Z,58.01
2024-01-31T01:40:50.295Z,55.75
2024-01-31T01:41:50.191Z,55.43
2024-01-31T01:42:50.256Z,54.79
2024-01-31T01:43:50.247Z,59.30
2024-01-31T01:44:50.212Z,56.24
2024-01-31T01:45:50.190Z,55.91
2024-01-31T01:46:50.191Z,55.59
2024-01-31T01:47:50.388Z,55.27
2024-01-31T01:48:50.252Z,55.27
2024-01-31T01:49:50.255Z,54.79
2024-01-31T01:50:50.152Z,55.75
2024-01-31T01:51:50.157Z,55.11
2024-01-31T01:52:50.152Z,54.79
2024-01-31T01:53:52.069Z,55.11
2024-01-31T01:54:51.137Z,55.59
2024-01-31T01:55:50.245Z,56.40
2024-01-31T01:56:50.158Z,55.11
2024-01-31T01:57:50.096Z,56.24
2024-01-31T01:58:50.438Z,56.40
2024-01-31T01:59:50.090Z,55.59
2024-01-31T02:00:50.110Z,55.59
2024-01-31T02:01:50.109Z,55.91
2024-01-31T02:02:50.082Z,54.95
2024-01-31T02:04:25.187Z,55.11
2024-01-31T02:04:50.522Z,56.07
2024-01-31T02:05:50.175Z,55.11
2024-01-31T02:06:50.156Z,55.27
2024-01-31T02:07:50.099Z,55.11
2024-01-31T02:08:50.093Z,56.72
2024-01-31T02:09:50.021Z,55.11
2024-01-31T02:10:50.139Z,54.95
2024-01-31T02:11:50.032Z,55.59
2024-01-31T02:12:49.988Z,55.27
2024-01-31T02:13:50.004Z,56.40
2024-01-31T02:14:49.993Z,55.91
2024-01-31T02:15:49.972Z,55.11
2024-01-31T02:16:50.023Z,55.27
2024-01-31T02:17:50.056Z,55.27
2024-01-31T02:18:50.006Z,55.75
2024-01-31T02:19:50.055Z,56.72
2024-01-31T02:20:49.924Z,55.43
2024-01-31T02:21:50.006Z,55.43
2024-01-31T02:22:49.952Z,55.43
2024-01-31T02:23:49.920Z,55.59
2024-01-31T02:24:49.935Z,59.62
2024-01-31T02:25:49.959Z,56.40
2024-01-31T02:26:49.917Z,55.27
2024-01-31T02:27:49.958Z,55.91
2024-01-31T02:28:49.940Z,55.75
2024-01-31T02:29:49.886Z,57.20
2024-01-31T02:30:49.897Z,54.62
2024-01-31T03:15:52.663Z,55.27
2024-01-31T03:16:52.582Z,54.79
2024-01-31T03:17:52.582Z,55.27
2024-01-31T03:18:52.647Z,55.27
2024-01-31T03:19:52.686Z,56.56
2024-01-31T03:20:52.537Z,56.40
2024-01-31T03:21:52.564Z,55.27
2024-01-31T03:22:52.520Z,55.11
2024-01-31T03:23:52.549Z,55.59
2024-01-31T03:24:52.475Z,55.11
2024-01-31T03:25:52.497Z,55.43
2024-01-31T03:26:52.503Z,55.43
2024-01-31T03:27:52.496Z,57.36
2024-01-31T03:28:52.463Z,56.40
2024-01-31T03:29:52.464Z,55.75
2024-01-31T03:30:52.574Z,55.43
2024-01-31T03:31:53.479Z,56.07
2024-01-31T03:32:52.543Z,56.72
2024-01-31T03:33:52.555Z,56.24
2024-01-31T03:34:52.476Z,55.75
2024-01-31T03:35:52.439Z,55.59
2024-01-31T03:36:52.446Z,55.91
2024-01-31T03:37:52.433Z,55.75
2024-01-31T03:38:52.399Z,55.59
2024-01-31T03:39:52.396Z,56.24
2024-01-31T03:40:52.589Z,56.24
2024-01-31T03:41:52.443Z,56.88
2024-01-31T03:42:52.402Z,58.01
2024-01-31T03:43:52.367Z,56.88
2024-01-31T03:44:52.381Z,57.85
2024-01-31T03:45:52.362Z,56.07
2024-01-31T03:46:52.386Z,56.40
2024-01-31T03:47:52.407Z,57.36
2024-01-31T03:48:52.406Z,57.36
2024-01-31T03:49:52.642Z,55.59
2024-01-31T03:50:52.361Z,55.75
2024-01-31T03:51:52.311Z,56.56
2024-01-31T03:52:53.400Z,55.75
2024-01-31T03:53:52.322Z,57.20
2024-01-31T03:54:52.352Z,56.40
2024-01-31T03:55:52.309Z,56.40
2024-01-31T03:56:52.278Z,58.01
2024-01-31T03:57:52.322Z,55.75
2024-01-31T03:58:52.294Z,56.40
2024-01-31T03:59:52.305Z,59.14
2024-01-31T04:00:52.323Z,57.69
2024-01-31T04:01:52.415Z,56.40
2024-01-31T04:02:52.261Z,57.04
2024-01-31T04:03:52.262Z,55.75
2024-01-31T04:04:52.403Z,55.91
2024-01-31T04:05:52.280Z,59.30
2024-01-31T04:06:52.226Z,61.55
2024-01-31T04:07:52.318Z,60.59
2024-01-31T04:08:52.250Z,58.49
2024-01-31T04:09:52.211Z,58.01
2024-01-31T04:10:52.299Z,59.78
2024-01-31T04:11:52.257Z,58.33
2024-01-31T04:12:52.244Z,59.30
2024-01-31T04:13:52.196Z,62.20
2024-01-31T04:14:52.233Z,57.85
2024-01-31T04:15:53.042Z,59.14
2024-01-31T04:16:52.190Z,56.88
2024-01-31T04:17:52.295Z,57.36
2024-01-31T04:18:53.232Z,58.01
2024-01-31T04:19:52.174Z,63.97
2024-01-31T04:20:52.195Z,61.39
2024-01-31T04:21:52.188Z,57.69
2024-01-31T04:22:52.183Z,57.20
2024-01-31T04:23:52.186Z,57.52
2024-01-31T04:24:52.153Z,58.17
2024-01-31T04:25:52.151Z,61.55
2024-01-31T04:26:52.099Z,57.69
2024-01-31T04:27:52.144Z,63.16
2024-01-31T04:28:52.098Z,61.39
2024-01-31T04:29:52.088Z,59.30
2024-01-31T04:30:52.120Z,63.33
2024-01-31T04:31:52.151Z,60.10
2024-01-31T04:32:53.191Z,59.46
2024-01-31T04:33:52.110Z,59.30
2024-01-31T04:34:52.199Z,60.26
2024-01-31T04:35:52.169Z,58.33
2024-01-31T04:37:27.161Z,59.30
2024-01-31T04:37:52.253Z,64.29
2024-01-31T04:38:52.213Z,60.26
2024-01-31T04:39:52.096Z,59.30
2024-01-31T04:40:52.095Z,63.16
2024-01-31T04:41:52.050Z,59.14
2024-01-31T04:42:54.254Z,65.90
2024-01-31T04:43:53.065Z,61.55
2024-01-31T04:44:52.009Z,63.81
2024-01-31T04:45:52.591Z,57.20
2024-01-31T04:46:52.028Z,66.23
2024-01-31T04:47:51.986Z,61.87
2024-01-31T04:48:52.154Z,61.55
2024-01-31T04:49:52.267Z,63.81
2024-01-31T04:50:52.011Z,64.61
2024-01-31T04:51:52.654Z,58.01
2024-01-31T04:52:52.098Z,57.36
2024-01-31T04:53:52.038Z,65.10
2024-01-31T04:54:51.970Z,59.30
2024-01-31T04:55:51.987Z,62.68
2024-01-31T04:56:51.941Z,57.36
2024-01-31T04:57:51.935Z,57.52
2024-01-31T04:58:51.930Z,67.35
2024-01-31T04:59:53.540Z,57.85
2024-01-31T05:00:52.679Z,58.01
2024-01-31T05:01:52.032Z,60.26
2024-01-31T05:02:52.657Z,59.78
2024-01-31T05:03:52.013Z,60.75
2024-01-31T05:04:52.002Z,65.58
2024-01-31T05:05:52.081Z,56.88
2024-01-31T05:06:51.872Z,58.17
2024-01-31T05:07:52.598Z,61.71
2024-01-31T05:08:51.867Z,61.55
2024-01-31T05:09:51.865Z,65.42
2024-01-31T05:10:51.881Z,64.94
2024-01-31T05:11:52.847Z,61.07
2024-01-31T05:12:51.944Z,58.01
2024-01-31T05:13:52.311Z,58.49
2024-01-31T05:14:52.872Z,64.61
2024-01-31T05:15:51.875Z,61.87
2024-01-31T05:16:51.874Z,67.35
2024-01-31T05:17:51.863Z,68.16
2024-01-31T05:18:51.861Z,71.22
2024-01-31T05:19:52.906Z,61.87
2024-01-31T05:20:52.274Z,64.61
2024-01-31T05:21:51.943Z,65.90
2024-01-31T05:22:51.967Z,60.42
2024-01-31T05:23:52.704Z,61.55
2024-01-31T05:24:51.970Z,64.29
2024-01-31T05:25:51.917Z,62.68
2024-01-31T05:26:52.047Z,65.74
2024-01-31T05:27:52.795Z,66.71
2024-01-31T05:28:51.889Z,59.14
2024-01-31T05:29:51.927Z,66.39
2024-01-31T05:30:51.883Z,67.03
2024-01-31T05:31:52.895Z,58.49
2024-01-31T05:32:53.896Z,67.68
2024-01-31T05:33:53.045Z,64.78
2024-01-31T05:34:51.854Z,67.68
2024-01-31T05:35:51.735Z,60.10
2024-01-31T05:36:51.832Z,68.80
2024-01-31T05:37:52.784Z,65.10
2024-01-31T05:38:51.752Z,59.62
2024-01-31T05:39:51.748Z,69.93
2024-01-31T05:40:51.822Z,63.00
2024-01-31T05:41:51.758Z,67.19
2024-01-31T05:42:53.829Z,67.84
2024-01-31T05:43:53.550Z,65.58
2024-01-31T05:44:51.660Z,70.58
2024-01-31T05:45:51.666Z,68.48
2024-01-31T05:46:52.582Z,64.29
2024-01-31T05:47:51.707Z,63.97
2024-01-31T05:48:51.667Z,66.87
2024-01-31T05:49:51.685Z,64.61
2024-01-31T05:50:51.646Z,66.39
2024-01-31T05:51:52.793Z,64.45
2024-01-31T05:52:51.661Z,64.13
2024-01-31T05:53:51.604Z,65.42
2024-01-31T05:54:51.579Z,68.00
2024-01-31T05:56:24.440Z,69.77
2024-01-31T05:56:54.253Z,74.28
2024-01-31T05:57:52.710Z,58.17
2024-01-31T05:58:51.594Z,70.74
2024-01-31T05:59:51.671Z,61.55
2024-01-31T06:00:51.717Z,63.81
2024-01-31T06:01:51.587Z,62.36
2024-01-31T06:02:54.259Z,69.29
2024-01-31T06:03:52.566Z,64.94
2024-01-31T06:04:51.666Z,69.77
2024-01-31T06:05:51.555Z,67.84
2024-01-31T06:06:51.565Z,66.87
2024-01-31T06:07:51.556Z,67.51
2024-01-31T06:08:51.498Z,64.94
2024-01-31T06:09:51.502Z,68.64
2024-01-31T06:10:51.595Z,64.29
2024-01-31T06:11:51.502Z,69.77
2024-01-31T06:12:51.542Z,64.13
2024-01-31T06:13:51.536Z,59.30
2024-01-31T06:14:51.542Z,62.04
2024-01-31T06:15:51.506Z,68.80
2024-01-31T06:16:51.529Z,61.07
2024-01-31T06:17:51.637Z,65.74
2024-01-31T06:18:51.456Z,66.87
2024-01-31T06:19:51.674Z,62.04
2024-01-31T06:20:51.557Z,67.03
2024-01-31T06:21:51.462Z,66.87
2024-01-31T06:22:51.493Z,71.06
2024-01-31T06:23:51.424Z,65.90
2024-01-31T06:24:51.420Z,67.35
2024-01-31T06:25:51.411Z,64.61
2024-01-31T06:26:51.384Z,68.80
2024-01-31T06:27:51.398Z,62.36
2024-01-31T06:28:51.734Z,70.90
2024-01-31T10:00:56.031Z,61.55
2024-01-31T10:01:55.750Z,68.00
2024-01-31T10:02:54.734Z,69.77
2024-01-31T10:38:50.035Z,68.32
2024-01-31T13:39:36.544Z,70.90
2024-01-31T13:40:39.510Z,72.99
2024-01-31T13:54:21.437Z,69.93
2024-01-31T14:10:59.557Z,70.90
2024-01-31T14:15:12.681Z,66.87
2024-01-31T14:16:12.849Z,67.84
2024-01-31T14:25:43.945Z,69.45
2024-01-31T14:26:44.120Z,71.22
2024-01-31T14:27:44.657Z,73.96
2024-01-31T17:13:49.133Z,63.49
2024-01-31T18:31:25.127Z,61.07
2024-01-31T18:32:26.210Z,66.06
2024-01-31T18:33:24.240Z,64.94
2024-01-31T18:34:24.502Z,62.36
2024-01-31T18:35:25.292Z,63.81
2024-01-31T18:36:24.586Z,69.45
2024-01-31T18:37:25.290Z,62.84
2024-01-31T18:38:25.967Z,66.55
2024-01-31T18:39:25.473Z,62.52
2024-01-31T18:40:24.954Z,63.16
2024-01-31T18:41:25.141Z,61.07
2024-01-31T18:42:25.030Z,65.10
2024-01-31T18:43:25.920Z,64.29
2024-01-31T18:44:24.127Z,64.61
2024-01-31T18:45:24.473Z,65.42
2024-01-31T18:46:25.512Z,63.49
2024-01-31T18:47:23.926Z,65.90
2024-01-31T18:48:31.367Z,65.74
2024-01-31T18:49:24.519Z,67.84
2024-01-31T19:31:17.078Z,66.55
2024-01-31T19:32:16.371Z,59.46
2024-01-31T19:33:16.163Z,63.16
2024-01-31T19:34:16.008Z,60.75
2024-01-31T19:35:17.194Z,65.10
2024-01-31T19:36:18.807Z,60.26
2024-01-31T19:37:17.972Z,67.35
2024-01-31T19:38:17.015Z,66.71
2024-01-31T19:39:15.860Z,65.10
2024-01-31T19:40:18.233Z,59.78
2024-01-31T19:41:17.007Z,59.78
2024-01-31T19:42:15.817Z,62.04
2024-01-31T19:43:18.293Z,59.30
2024-01-31T19:44:15.845Z,65.90
2024-01-31T19:45:16.054Z,59.30
2024-01-31T19:46:15.807Z,60.42
2024-01-31T19:47:15.933Z,60.26
2024-01-31T19:48:17.203Z,62.68
2024-01-31T19:49:15.967Z,62.36
2024-01-31T20:22:37.988Z,62.84
2024-01-31T20:24:16.606Z,64.13
2024-01-31T20:25:14.921Z,60.75
2024-01-31T20:25:37.513Z,66.06
2024-01-31T20:26:37.317Z,62.68
2024-01-31T20:27:37.351Z,65.90
2024-01-31T20:28:37.193Z,60.26
2024-01-31T20:35:27.886Z,60.26
2024-01-31T20:36:27.542Z,62.04
2024-01-31T22:08:25.991Z,60.91
2024-01-31T22:09:26.137Z,58.01
2024-01-31T22:10:27.214Z,58.17
2024-01-31T22:11:27.095Z,58.33
2024-01-31T22:12:26.994Z,59.30
2024-01-31T22:13:27.138Z,60.10
2024-01-31T22:14:28.316Z,61.39
2024-01-31T22:15:27.142Z,58.17
2024-01-31T22:40:52.136Z,58.17
2024-01-31T22:41:49.994Z,57.69
2024-01-31T22:42:50.086Z,59.14
2024-01-31T22:43:50.224Z,58.81
2024-01-31T22:44:50.221Z,58.81
2024-01-31T22:45:50.023Z,59.46
2024-01-31T22:46:50.010Z,58.81
2024-01-31T22:47:49.986Z,58.81
2024-01-31T22:48:50.072Z,58.81
2024-01-31T22:49:50.107Z,58.97
2024-01-31T22:50:49.990Z,58.97
2024-01-31T22:51:50.135Z,58.97
2024-01-31T22:52:50.316Z,60.42
2024-01-31T22:53:49.950Z,59.62
2024-01-31T22:54:57.242Z,59.94
2024-01-31T22:55:52.036Z,59.14
2024-01-31T22:56:49.901Z,59.30
2024-01-31T22:57:49.965Z,58.49
2024-01-31T22:58:49.816Z,58.97
2024-01-31T22:59:50.234Z,58.65
2024-01-31T23:00:49.958Z,58.17
2024-01-31T23:01:49.844Z,58.33
2024-01-31T23:02:49.943Z,58.49
2024-01-31T23:03:49.817Z,58.81
2024-01-31T23:04:49.777Z,59.62
2024-01-31T23:05:49.815Z,58.65
2024-01-31T23:06:50.170Z,59.78
2024-01-31T23:07:50.787Z,59.62
2024-01-31T23:08:49.761Z,58.81
2024-01-31T23:09:49.779Z,58.65
2024-01-31T23:10:49.859Z,58.49
2024-01-31T23:11:49.822Z,58.97
2024-01-31T23:12:49.854Z,58.33
2024-01-31T23:13:49.818Z,58.01
2024-01-31T23:14:49.916Z,58.49
2024-01-31T23:15:49.759Z,57.69
2024-01-31T23:16:49.827Z,58.65
2024-01-31T23:17:49.927Z,60.10
2024-01-31T23:18:49.841Z,58.81
2024-01-31T23:19:50.362Z,58.17
2024-01-31T23:20:50.298Z,58.97
2024-01-31T23:21:50.025Z,58.49
2024-01-31T23:22:50.123Z,58.01
2024-01-31T23:23:49.700Z,58.01
2024-01-31T23:24:49.998Z,58.33
2024-01-31T23:25:49.790Z,57.69
2024-01-31T23:26:49.663Z,58.49
2024-01-31T23:27:49.700Z,58.01
2024-01-31T23:28:50.006Z,58.33
2024-01-31T23:29:49.679Z,58.17
2024-01-31T23:42:49.736Z,58.49
2024-01-31T23:43:50.760Z,58.97
2024-01-31T23:44:50.945Z,58.01
2024-01-31T23:45:50.753Z,58.01
2024-01-31T23:46:50.588Z,58.17
2024-01-31T23:47:51.036Z,58.01
2024-01-31T23:48:50.747Z,58.17
2024-01-31T23:49:50.736Z,58.65
2024-01-31T23:54:46.710Z,57.85
2024-01-31T23:55:47.720Z,57.69
2024-01-31T23:56:47.845Z,58.33
2024-01-31T23:57:47.680Z,58.17
2024-01-31T23:58:47.646Z,58.17
2024-01-31T23:59:47.760Z,58.01
